sensor_id;sensor_type;location;lat;lon;timestamp;pressure;altitude;pressure_sealevel;temperature;humidity
25869;BME280;13688;53.154;18.136;2022-07-23T00:04:33;100999.48;;;21.13;60.34
25869;BME280;13688;53.154;18.136;2022-07-23T00:09:56;100999.57;;;21.05;60.47
25869;BME280;13688;53.154;18.136;2022-07-23T00:15:19;100992.79;;;20.93;60.63
25869;BME280;13688;53.154;18.136;2022-07-23T00:20:41;100995.75;;;20.83;60.83
25869;BME280;13688;53.154;18.136;2022-07-23T00:26:04;101000.59;;;20.73;60.94
25869;BME280;13688;53.154;18.136;2022-07-23T00:31:26;101009.37;;;20.60;61.10
25869;BME280;13688;53.154;18.136;2022-07-23T00:36:48;101004.29;;;20.41;61.53
25869;BME280;13688;53.154;18.136;2022-07-23T00:42:10;101010.11;;;20.38;62.08
25869;BME280;13688;53.154;18.136;2022-07-23T00:47:33;101010.63;;;20.33;62.25
25869;BME280;13688;53.154;18.136;2022-07-23T00:52:56;101011.86;;;20.22;62.36
25869;BME280;13688;53.154;18.136;2022-07-23T00:58:20;100998.09;;;20.08;62.77
25869;BME280;13688;53.154;18.136;2022-07-23T01:03:43;100991.61;;;20.00;63.19
25869;BME280;13688;53.154;18.136;2022-07-23T01:09:05;100982.05;;;19.96;63.49
25869;BME280;13688;53.154;18.136;2022-07-23T01:14:28;101003.39;;;19.93;63.96
25869;BME280;13688;53.154;18.136;2022-07-23T01:19:50;101004.42;;;19.92;64.10
25869;BME280;13688;53.154;18.136;2022-07-23T01:25:14;101010.73;;;19.84;64.30
25869;BME280;13688;53.154;18.136;2022-07-23T01:30:31;101006.98;;;19.77;64.60
25869;BME280;13688;53.154;18.136;2022-07-23T01:35:44;101016.37;;;19.75;64.75
25869;BME280;13688;53.154;18.136;2022-07-23T01:41:01;101005.28;;;19.68;64.69
25869;BME280;13688;53.154;18.136;2022-07-23T01:46:17;100993.55;;;19.59;64.95
25869;BME280;13688;53.154;18.136;2022-07-23T01:51:41;100995.05;;;19.54;65.06
25869;BME280;13688;53.154;18.136;2022-07-23T01:57:10;100989.41;;;19.47;65.16
25869;BME280;13688;53.154;18.136;2022-07-23T02:02:34;100987.20;;;19.42;65.40
25869;BME280;13688;53.154;18.136;2022-07-23T02:07:57;100997.44;;;19.40;65.58
25869;BME280;13688;53.154;18.136;2022-07-23T02:13:20;100991.28;;;19.38;65.72
25869;BME280;13688;53.154;18.136;2022-07-23T02:18:42;100987.88;;;19.36;65.85
25869;BME280;13688;53.154;18.136;2022-07-23T02:24:05;100984.97;;;19.30;65.97
25869;BME280;13688;53.154;18.136;2022-07-23T02:29:28;100988.22;;;19.25;66.09
25869;BME280;13688;53.154;18.136;2022-07-23T02:34:51;100981.55;;;19.20;66.16
25869;BME280;13688;53.154;18.136;2022-07-23T02:40:13;100972.19;;;19.14;66.18
25869;BME280;13688;53.154;18.136;2022-07-23T02:45:36;100974.55;;;19.09;66.30
25869;BME280;13688;53.154;18.136;2022-07-23T02:50:58;100980.70;;;19.03;66.37
25869;BME280;13688;53.154;18.136;2022-07-23T02:56:23;100979.48;;;18.97;66.40
25869;BME280;13688;53.154;18.136;2022-07-23T03:01:45;100980.85;;;18.93;66.52
25869;BME280;13688;53.154;18.136;2022-07-23T03:07:08;100982.02;;;18.91;66.55
25869;BME280;13688;53.154;18.136;2022-07-23T03:12:31;100983.03;;;18.90;66.56
25869;BME280;13688;53.154;18.136;2022-07-23T03:17:53;100986.95;;;18.87;66.47
25869;BME280;13688;53.154;18.136;2022-07-23T03:23:17;100997.66;;;18.80;66.50
25869;BME280;13688;53.154;18.136;2022-07-23T03:28:39;100992.89;;;18.74;66.57
25869;BME280;13688;53.154;18.136;2022-07-23T03:34:02;100985.03;;;18.71;66.67
25869;BME280;13688;53.154;18.136;2022-07-23T03:39:25;100990.81;;;18.68;66.70
25869;BME280;13688;53.154;18.136;2022-07-23T03:44:49;100980.41;;;18.64;66.94
25869;BME280;13688;53.154;18.136;2022-07-23T03:50:12;100982.98;;;18.65;67.16
25869;BME280;13688;53.154;18.136;2022-07-23T03:55:34;100976.34;;;18.68;67.26
25869;BME280;13688;53.154;18.136;2022-07-23T04:00:56;100961.05;;;18.75;67.38
25869;BME280;13688;53.154;18.136;2022-07-23T04:06:19;100960.73;;;18.86;67.35
25869;BME280;13688;53.154;18.136;2022-07-23T04:11:42;100953.60;;;18.93;67.37
25869;BME280;13688;53.154;18.136;2022-07-23T04:17:04;100959.75;;;19.03;67.39
25869;BME280;13688;53.154;18.136;2022-07-23T04:22:27;100963.16;;;19.13;67.38
25869;BME280;13688;53.154;18.136;2022-07-23T04:27:50;100962.83;;;19.25;67.44
25869;BME280;13688;53.154;18.136;2022-07-23T04:33:12;100957.70;;;19.38;67.48
25869;BME280;13688;53.154;18.136;2022-07-23T04:38:34;100951.76;;;19.51;67.48
25869;BME280;13688;53.154;18.136;2022-07-23T04:43:58;100957.20;;;19.67;67.44
25869;BME280;13688;53.154;18.136;2022-07-23T04:49:20;100943.91;;;19.80;67.34
25869;BME280;13688;53.154;18.136;2022-07-23T04:54:43;100928.50;;;19.95;67.32
25869;BME280;13688;53.154;18.136;2022-07-23T05:00:06;100925.72;;;20.12;67.30
25869;BME280;13688;53.154;18.136;2022-07-23T05:05:29;100936.73;;;20.26;67.27
25869;BME280;13688;53.154;18.136;2022-07-23T05:10:51;100932.94;;;20.44;67.22
25869;BME280;13688;53.154;18.136;2022-07-23T05:16:13;100923.64;;;20.61;67.05
25869;BME280;13688;53.154;18.136;2022-07-23T05:21:36;100918.27;;;20.76;66.88
25869;BME280;13688;53.154;18.136;2022-07-23T05:26:59;100918.32;;;20.91;66.61
25869;BME280;13688;53.154;18.136;2022-07-23T05:32:21;100923.36;;;21.02;66.43
25869;BME280;13688;53.154;18.136;2022-07-23T05:37:45;100911.64;;;21.16;66.17
25869;BME280;13688;53.154;18.136;2022-07-23T05:43:07;100903.50;;;21.31;65.86
25869;BME280;13688;53.154;18.136;2022-07-23T05:48:31;100902.05;;;21.43;65.46
25869;BME280;13688;53.154;18.136;2022-07-23T05:53:55;100905.17;;;21.55;65.14
25869;BME280;13688;53.154;18.136;2022-07-23T05:59:17;100899.05;;;21.67;64.87
25869;BME280;13688;53.154;18.136;2022-07-23T06:04:40;100886.58;;;21.80;64.56
25869;BME280;13688;53.154;18.136;2022-07-23T06:10:03;100893.12;;;21.93;64.24
25869;BME280;13688;53.154;18.136;2022-07-23T06:15:26;100877.73;;;22.07;63.92
25869;BME280;13688;53.154;18.136;2022-07-23T06:20:48;100886.15;;;22.20;63.59
25869;BME280;13688;53.154;18.136;2022-07-23T06:26:14;100895.37;;;22.34;63.21
25869;BME280;13688;53.154;18.136;2022-07-23T06:31:36;100893.17;;;22.44;62.82
25869;BME280;13688;53.154;18.136;2022-07-23T06:36:59;100899.64;;;22.58;62.49
25869;BME280;13688;53.154;18.136;2022-07-23T06:42:23;100892.16;;;22.67;62.10
25869;BME280;13688;53.154;18.136;2022-07-23T06:48:00;100889.09;;;22.91;62.35
25869;BME280;13688;53.154;18.136;2022-07-23T06:53:23;100892.47;;;22.93;61.48
25869;BME280;13688;53.154;18.136;2022-07-23T06:58:45;100882.67;;;23.05;61.12
25869;BME280;13688;53.154;18.136;2022-07-23T07:04:09;100883.18;;;23.16;60.73
25869;BME280;13688;53.154;18.136;2022-07-23T07:09:31;100873.59;;;23.26;60.36
25869;BME280;13688;53.154;18.136;2022-07-23T07:14:57;100887.41;;;23.39;60.06
25869;BME280;13688;53.154;18.136;2022-07-23T07:20:21;100895.53;;;23.54;59.73
25869;BME280;13688;53.154;18.136;2022-07-23T07:25:45;100887.87;;;23.71;59.34
25869;BME280;13688;53.154;18.136;2022-07-23T07:31:08;100889.67;;;23.85;58.82
25869;BME280;13688;53.154;18.136;2022-07-23T07:36:30;100882.55;;;23.97;58.42
25869;BME280;13688;53.154;18.136;2022-07-23T07:41:54;100880.91;;;24.10;57.83
25869;BME280;13688;53.154;18.136;2022-07-23T07:47:17;100879.94;;;24.24;57.17
25869;BME280;13688;53.154;18.136;2022-07-23T07:52:41;100892.48;;;24.40;56.48
25869;BME280;13688;53.154;18.136;2022-07-23T07:58:04;100886.84;;;24.54;55.87
25869;BME280;13688;53.154;18.136;2022-07-23T08:03:27;100881.61;;;24.73;55.39
25869;BME280;13688;53.154;18.136;2022-07-23T08:08:52;100881.44;;;24.94;54.83
25869;BME280;13688;53.154;18.136;2022-07-23T08:14:15;100868.16;;;25.11;54.25
25869;BME280;13688;53.154;18.136;2022-07-23T08:19:38;100869.00;;;25.31;53.71
25869;BME280;13688;53.154;18.136;2022-07-23T08:25:01;100864.55;;;25.44;53.16
25869;BME280;13688;53.154;18.136;2022-07-23T08:30:24;100868.55;;;25.54;52.72
25869;BME280;13688;53.154;18.136;2022-07-23T08:35:50;100864.73;;;25.75;52.34
25869;BME280;13688;53.154;18.136;2022-07-23T08:41:14;100857.08;;;25.90;51.69
25869;BME280;13688;53.154;18.136;2022-07-23T08:46:39;100855.77;;;26.06;51.14
25869;BME280;13688;53.154;18.136;2022-07-23T08:52:03;100867.86;;;25.99;50.09
25869;BME280;13688;53.154;18.136;2022-07-23T08:57:26;100872.93;;;26.02;49.50
25869;BME280;13688;53.154;18.136;2022-07-23T09:02:50;100878.14;;;26.23;48.84
25869;BME280;13688;53.154;18.136;2022-07-23T09:08:15;100897.98;;;26.51;46.79
25869;BME280;13688;53.154;18.136;2022-07-23T09:13:41;100879.70;;;26.64;46.29
25869;BME280;13688;53.154;18.136;2022-07-23T09:19:08;100882.50;;;26.89;45.70
25869;BME280;13688;53.154;18.136;2022-07-23T09:24:32;100895.35;;;27.01;44.82
25869;BME280;13688;53.154;18.136;2022-07-23T09:29:56;100897.37;;;26.88;44.51
25869;BME280;13688;53.154;18.136;2022-07-23T09:35:19;100928.91;;;26.67;44.68
25869;BME280;13688;53.154;18.136;2022-07-23T09:40:44;100936.86;;;26.30;45.04
25869;BME280;13688;53.154;18.136;2022-07-23T09:46:31;100945.64;;;25.94;45.88
25869;BME280;13688;53.154;18.136;2022-07-23T09:52:01;100946.50;;;25.55;47.01
25869;BME280;13688;53.154;18.136;2022-07-23T09:57:24;100952.41;;;25.12;48.63
25869;BME280;13688;53.154;18.136;2022-07-23T10:02:51;100948.64;;;24.65;50.08
25869;BME280;13688;53.154;18.136;2022-07-23T10:08:17;100932.16;;;24.24;51.65
25869;BME280;13688;53.154;18.136;2022-07-23T10:13:40;100932.94;;;23.83;53.80
25869;BME280;13688;53.154;18.136;2022-07-23T10:19:17;100921.25;;;23.47;55.83
25869;BME280;13688;53.154;18.136;2022-07-23T10:37:05;100941.84;;;22.27;60.59
25869;BME280;13688;53.154;18.136;2022-07-23T10:42:33;100944.94;;;21.95;61.58
25869;BME280;13688;53.154;18.136;2022-07-23T10:48:19;100936.23;;;21.77;62.72
25869;BME280;13688;53.154;18.136;2022-07-23T10:53:59;100958.21;;;21.68;63.97
25869;BME280;13688;53.154;18.136;2022-07-23T10:59:22;100965.38;;;21.69;64.70
25869;BME280;13688;53.154;18.136;2022-07-23T11:04:58;100962.95;;;21.75;65.14
25869;BME280;13688;53.154;18.136;2022-07-23T11:10:40;100967.00;;;21.79;65.77
25869;BME280;13688;53.154;18.136;2022-07-23T11:16:13;100975.52;;;21.84;66.12
25869;BME280;13688;53.154;18.136;2022-07-23T11:21:45;100977.41;;;21.83;66.59
25869;BME280;13688;53.154;18.136;2022-07-23T11:27:08;100966.08;;;21.86;66.90
25869;BME280;13688;53.154;18.136;2022-07-23T11:32:33;100956.30;;;22.07;67.56
25869;BME280;13688;53.154;18.136;2022-07-23T11:38:08;100961.12;;;22.34;67.53
25869;BME280;13688;53.154;18.136;2022-07-23T11:43:31;100966.65;;;22.70;67.59
25869;BME280;13688;53.154;18.136;2022-07-23T11:49:02;100947.52;;;23.13;67.02
25869;BME280;13688;53.154;18.136;2022-07-23T11:54:24;100942.30;;;23.39;66.09
25869;BME280;13688;53.154;18.136;2022-07-23T11:59:52;100940.33;;;23.55;65.33
25869;BME280;13688;53.154;18.136;2022-07-23T12:05:13;100927.30;;;23.63;64.73
25869;BME280;13688;53.154;18.136;2022-07-23T12:10:43;100927.22;;;23.78;64.29
25869;BME280;13688;53.154;18.136;2022-07-23T12:16:07;100916.23;;;23.78;63.77
25869;BME280;13688;53.154;18.136;2022-07-23T12:21:31;100922.27;;;23.95;63.89
25869;BME280;13688;53.154;18.136;2022-07-23T12:27:13;100923.23;;;24.15;63.49
25869;BME280;13688;53.154;18.136;2022-07-23T12:32:42;100932.52;;;24.14;62.39
25869;BME280;13688;53.154;18.136;2022-07-23T12:38:07;100923.19;;;23.74;62.41
25869;BME280;13688;53.154;18.136;2022-07-23T12:43:41;100925.89;;;23.46;63.02
25869;BME280;13688;53.154;18.136;2022-07-23T12:49:04;100927.14;;;23.22;63.50
25869;BME280;13688;53.154;18.136;2022-07-23T12:54:30;100944.70;;;23.06;64.02
25869;BME280;13688;53.154;18.136;2022-07-23T12:59:52;100925.02;;;22.81;64.17
25869;BME280;13688;53.154;18.136;2022-07-23T13:05:25;100912.13;;;22.61;64.86
25869;BME280;13688;53.154;18.136;2022-07-23T13:10:49;100919.71;;;22.59;65.43
25869;BME280;13688;53.154;18.136;2022-07-23T13:16:12;100903.06;;;22.60;65.64
25869;BME280;13688;53.154;18.136;2022-07-23T13:21:36;100896.79;;;22.66;66.01
25869;BME280;13688;53.154;18.136;2022-07-23T13:26:59;100886.19;;;22.78;66.16
25869;BME280;13688;53.154;18.136;2022-07-23T13:32:22;100905.45;;;22.84;65.92
25869;BME280;13688;53.154;18.136;2022-07-23T13:37:44;100916.52;;;22.76;66.11
25869;BME280;13688;53.154;18.136;2022-07-23T13:43:15;100918.35;;;22.69;66.14
25869;BME280;13688;53.154;18.136;2022-07-23T13:48:40;100921.86;;;22.63;66.48
25869;BME280;13688;53.154;18.136;2022-07-23T13:54:03;100912.70;;;22.56;66.38
25869;BME280;13688;53.154;18.136;2022-07-23T13:59:26;100898.09;;;22.49;66.61
25869;BME280;13688;53.154;18.136;2022-07-23T14:04:49;100905.30;;;22.71;67.01
25869;BME280;13688;53.154;18.136;2022-07-23T14:10:13;100914.36;;;23.08;66.51
25869;BME280;13688;53.154;18.136;2022-07-23T14:15:37;100913.96;;;23.11;65.50
25869;BME280;13688;53.154;18.136;2022-07-23T14:21:00;100910.17;;;22.91;64.83
25869;BME280;13688;53.154;18.136;2022-07-23T14:26:24;100898.65;;;22.80;64.19
25869;BME280;13688;53.154;18.136;2022-07-23T14:31:47;100883.05;;;22.81;63.82
25869;BME280;13688;53.154;18.136;2022-07-23T14:37:11;100887.91;;;23.00;63.25
25869;BME280;13688;53.154;18.136;2022-07-23T14:42:34;100888.83;;;23.07;62.63
25869;BME280;13688;53.154;18.136;2022-07-23T14:47:58;100895.07;;;23.23;62.12
25869;BME280;13688;53.154;18.136;2022-07-23T14:53:22;100899.50;;;23.45;61.30
25869;BME280;13688;53.154;18.136;2022-07-23T14:58:44;100897.42;;;23.54;60.62
25869;BME280;13688;53.154;18.136;2022-07-23T15:04:08;100898.25;;;23.48;59.82
25869;BME280;13688;53.154;18.136;2022-07-23T15:09:32;100890.80;;;23.41;59.53
25869;BME280;13688;53.154;18.136;2022-07-23T15:14:56;100889.10;;;23.40;59.36
25869;BME280;13688;53.154;18.136;2022-07-23T15:20:20;100887.61;;;23.38;59.24
25869;BME280;13688;53.154;18.136;2022-07-23T15:25:44;100889.95;;;23.41;59.25
25869;BME280;13688;53.154;18.136;2022-07-23T15:31:07;100895.09;;;23.51;59.64
25869;BME280;13688;53.154;18.136;2022-07-23T15:36:30;100888.98;;;23.77;60.11
25869;BME280;13688;53.154;18.136;2022-07-23T15:41:53;100887.77;;;24.27;59.95
25869;BME280;13688;53.154;18.136;2022-07-23T15:47:19;100873.53;;;24.51;59.31
25869;BME280;13688;53.154;18.136;2022-07-23T15:52:42;100879.89;;;24.65;58.68
25869;BME280;13688;53.154;18.136;2022-07-23T15:58:06;100882.27;;;24.81;57.86
25869;BME280;13688;53.154;18.136;2022-07-23T16:03:31;100879.95;;;24.98;57.14
25869;BME280;13688;53.154;18.136;2022-07-23T16:08:55;100879.81;;;25.20;56.40
25869;BME280;13688;53.154;18.136;2022-07-23T16:14:20;100875.58;;;25.30;55.73
25869;BME280;13688;53.154;18.136;2022-07-23T16:19:42;100871.11;;;25.36;55.23
25869;BME280;13688;53.154;18.136;2022-07-23T16:25:05;100868.35;;;25.36;54.94
25869;BME280;13688;53.154;18.136;2022-07-23T16:30:29;100866.45;;;25.43;54.63
25869;BME280;13688;53.154;18.136;2022-07-23T16:35:52;100863.72;;;25.30;54.36
25869;BME280;13688;53.154;18.136;2022-07-23T16:41:15;100875.77;;;25.02;54.47
25869;BME280;13688;53.154;18.136;2022-07-23T16:46:38;100862.37;;;24.73;54.95
25869;BME280;13688;53.154;18.136;2022-07-23T16:52:02;100871.80;;;24.50;55.58
25869;BME280;13688;53.154;18.136;2022-07-23T16:57:24;100868.95;;;24.31;56.07
25869;BME280;13688;53.154;18.136;2022-07-23T17:02:47;100865.28;;;24.10;56.84
25869;BME280;13688;53.154;18.136;2022-07-23T17:08:11;100864.97;;;23.92;57.42
25869;BME280;13688;53.154;18.136;2022-07-23T17:13:36;100862.11;;;23.72;57.62
25869;BME280;13688;53.154;18.136;2022-07-23T17:18:58;100853.51;;;23.54;58.02
25869;BME280;13688;53.154;18.136;2022-07-23T17:24:22;100865.25;;;23.41;58.48
25869;BME280;13688;53.154;18.136;2022-07-23T17:29:45;100873.83;;;23.31;58.86
25869;BME280;13688;53.154;18.136;2022-07-23T17:35:08;100877.12;;;23.20;59.22
25869;BME280;13688;53.154;18.136;2022-07-23T17:40:31;100882.30;;;23.08;59.65
25869;BME280;13688;53.154;18.136;2022-07-23T17:45:53;100884.05;;;22.95;60.08
25869;BME280;13688;53.154;18.136;2022-07-23T17:51:16;100875.30;;;22.84;60.60
25869;BME280;13688;53.154;18.136;2022-07-23T17:56:39;100858.70;;;22.71;61.12
25869;BME280;13688;53.154;18.136;2022-07-23T18:02:02;100871.22;;;22.59;61.79
25869;BME280;13688;53.154;18.136;2022-07-23T18:07:25;100874.45;;;22.48;62.40
25869;BME280;13688;53.154;18.136;2022-07-23T18:12:48;100867.97;;;22.34;62.89
25869;BME280;13688;53.154;18.136;2022-07-23T18:18:10;100886.80;;;22.22;63.45
25869;BME280;13688;53.154;18.136;2022-07-23T18:23:33;100907.56;;;22.02;63.34
25869;BME280;13688;53.154;18.136;2022-07-23T18:28:56;100876.47;;;21.51;63.56
25869;BME280;13688;53.154;18.136;2022-07-23T18:34:19;100889.27;;;21.12;64.25
25869;BME280;13688;53.154;18.136;2022-07-23T18:39:42;100889.48;;;20.88;65.33
25869;BME280;13688;53.154;18.136;2022-07-23T18:45:05;100896.56;;;20.74;66.51
25869;BME280;13688;53.154;18.136;2022-07-23T18:50:29;100900.38;;;20.65;67.46
25869;BME280;13688;53.154;18.136;2022-07-23T18:55:52;100906.58;;;20.59;68.19
25869;BME280;13688;53.154;18.136;2022-07-23T19:01:15;100910.02;;;20.53;68.86
25869;BME280;13688;53.154;18.136;2022-07-23T19:06:39;100916.03;;;20.48;69.43
25869;BME280;13688;53.154;18.136;2022-07-23T19:12:04;100928.33;;;20.44;69.78
25869;BME280;13688;53.154;18.136;2022-07-23T19:17:26;100936.52;;;20.36;70.13
25869;BME280;13688;53.154;18.136;2022-07-23T19:22:49;100927.55;;;20.27;70.50
25869;BME280;13688;53.154;18.136;2022-07-23T19:28:11;100934.73;;;20.20;70.72
25869;BME280;13688;53.154;18.136;2022-07-23T19:33:34;100941.44;;;20.10;70.98
25869;BME280;13688;53.154;18.136;2022-07-23T19:38:58;100958.68;;;20.02;70.99
25869;BME280;13688;53.154;18.136;2022-07-23T19:44:21;100958.87;;;19.92;70.88
25869;BME280;13688;53.154;18.136;2022-07-23T19:49:43;100962.83;;;19.82;70.73
25869;BME280;13688;53.154;18.136;2022-07-23T19:55:06;100973.92;;;19.72;70.46
25869;BME280;13688;53.154;18.136;2022-07-23T20:00:30;100984.34;;;19.60;70.14
25869;BME280;13688;53.154;18.136;2022-07-23T20:05:54;100994.36;;;19.43;69.69
25869;BME280;13688;53.154;18.136;2022-07-23T20:11:17;101006.63;;;19.23;69.44
25869;BME280;13688;53.154;18.136;2022-07-23T20:16:40;101003.66;;;19.00;69.27
25869;BME280;13688;53.154;18.136;2022-07-23T20:22:03;101006.54;;;18.82;69.54
25869;BME280;13688;53.154;18.136;2022-07-23T20:27:25;101009.55;;;18.71;69.66
25869;BME280;13688;53.154;18.136;2022-07-23T20:32:47;101010.50;;;18.62;69.75
25869;BME280;13688;53.154;18.136;2022-07-23T20:38:10;101011.17;;;18.56;70.03
25869;BME280;13688;53.154;18.136;2022-07-23T20:43:32;101014.75;;;18.56;70.30
25869;BME280;13688;53.154;18.136;2022-07-23T20:48:55;101010.84;;;18.59;70.46
25869;BME280;13688;53.154;18.136;2022-07-23T20:54:18;101019.01;;;18.59;70.45
25869;BME280;13688;53.154;18.136;2022-07-23T20:59:41;101035.30;;;18.51;70.30
25869;BME280;13688;53.154;18.136;2022-07-23T21:05:03;101060.09;;;18.40;70.08
25869;BME280;13688;53.154;18.136;2022-07-23T21:10:26;101062.72;;;18.23;69.73
25869;BME280;13688;53.154;18.136;2022-07-23T21:15:49;101063.65;;;18.06;69.43
25869;BME280;13688;53.154;18.136;2022-07-23T21:21:11;101067.61;;;17.94;69.40
25869;BME280;13688;53.154;18.136;2022-07-23T21:26:34;101076.36;;;17.80;69.33
25869;BME280;13688;53.154;18.136;2022-07-23T21:31:58;101082.87;;;17.69;69.37
25869;BME280;13688;53.154;18.136;2022-07-23T21:37:21;101089.94;;;17.62;69.40
25869;BME280;13688;53.154;18.136;2022-07-23T21:42:44;101092.28;;;17.57;69.38
25869;BME280;13688;53.154;18.136;2022-07-23T21:48:06;101089.32;;;17.50;69.36
25869;BME280;13688;53.154;18.136;2022-07-23T21:53:30;101101.97;;;17.41;69.36
25869;BME280;13688;53.154;18.136;2022-07-23T21:58:52;101092.56;;;17.36;69.30
25869;BME280;13688;53.154;18.136;2022-07-23T22:04:15;101105.20;;;17.27;69.41
25869;BME280;13688;53.154;18.136;2022-07-23T22:09:38;101106.84;;;17.20;69.47
25869;BME280;13688;53.154;18.136;2022-07-23T22:15:00;101111.33;;;17.11;69.57
25869;BME280;13688;53.154;18.136;2022-07-23T22:20:25;101111.70;;;16.99;69.67
25869;BME280;13688;53.154;18.136;2022-07-23T22:25:48;101117.77;;;16.83;69.72
25869;BME280;13688;53.154;18.136;2022-07-23T22:31:10;101116.97;;;16.63;69.85
25869;BME280;13688;53.154;18.136;2022-07-23T22:36:33;101121.30;;;16.46;70.03
25869;BME280;13688;53.154;18.136;2022-07-23T22:41:55;101115.34;;;16.33;70.24
25869;BME280;13688;53.154;18.136;2022-07-23T22:47:18;101119.80;;;16.24;70.52
25869;BME280;13688;53.154;18.136;2022-07-23T22:52:42;101121.94;;;16.11;70.63
25869;BME280;13688;53.154;18.136;2022-07-23T22:58:05;101125.11;;;15.97;70.82
25869;BME280;13688;53.154;18.136;2022-07-23T23:03:27;101118.99;;;15.85;71.07
25869;BME280;13688;53.154;18.136;2022-07-23T23:08:49;101120.86;;;15.75;71.30
25869;BME280;13688;53.154;18.136;2022-07-23T23:14:13;101114.72;;;15.63;71.51
25869;BME280;13688;53.154;18.136;2022-07-23T23:19:37;101113.80;;;15.53;71.70
25869;BME280;13688;53.154;18.136;2022-07-23T23:24:59;101108.82;;;15.49;71.86
25869;BME280;13688;53.154;18.136;2022-07-23T23:30:21;101113.23;;;15.40;71.97
25869;BME280;13688;53.154;18.136;2022-07-23T23:35:44;101110.50;;;15.30;72.03
25869;BME280;13688;53.154;18.136;2022-07-23T23:41:07;101126.34;;;15.25;72.13
25869;BME280;13688;53.154;18.136;2022-07-23T23:46:29;101124.74;;;15.23;72.26
25869;BME280;13688;53.154;18.136;2022-07-23T23:51:51;101122.72;;;15.15;72.31
25869;BME280;13688;53.154;18.136;2022-07-23T23:57:14;101125.16;;;15.08;72.42
